sensor_id;sensor_type;location;lat;lon;timestamp;temperature;humidity
55634;DHT22;41504;53.162;6.788;2023-03-01T00:00:37;2.20;88.90
55634;DHT22;41504;53.162;6.788;2023-03-01T00:03:03;2.20;88.70
55634;DHT22;41504;53.162;6.788;2023-03-01T00:05:31;2.10;89.00
55634;DHT22;41504;53.162;6.788;2023-03-01T00:07:57;2.00;88.90
55634;DHT22;41504;53.162;6.788;2023-03-01T00:10:23;2.00;88.90
55634;DHT22;41504;53.162;6.788;2023-03-01T00:12:49;2.00;89.00
55634;DHT22;41504;53.162;6.788;2023-03-01T00:15:14;2.00;88.90
55634;DHT22;41504;53.162;6.788;2023-03-01T00:17:40;2.00;88.80
55634;DHT22;41504;53.162;6.788;2023-03-01T00:20:06;2.00;88.70
55634;DHT22;41504;53.162;6.788;2023-03-01T00:22:36;2.00;88.60
55634;DHT22;41504;53.162;6.788;2023-03-01T00:25:03;2.00;88.50
55634;DHT22;41504;53.162;6.788;2023-03-01T00:27:29;2.00;88.50
55634;DHT22;41504;53.162;6.788;2023-03-01T00:29:54;1.90;88.50
55634;DHT22;41504;53.162;6.788;2023-03-01T00:32:20;1.90;88.50
55634;DHT22;41504;53.162;6.788;2023-03-01T00:34:46;1.90;88.60
55634;DHT22;41504;53.162;6.788;2023-03-01T00:37:24;1.90;88.60
55634;DHT22;41504;53.162;6.788;2023-03-01T00:39:50;1.90;89.10
55634;DHT22;41504;53.162;6.788;2023-03-01T00:42:16;1.90;88.60
55634;DHT22;41504;53.162;6.788;2023-03-01T00:44:42;1.80;88.30
55634;DHT22;41504;53.162;6.788;2023-03-01T00:47:08;1.80;88.30
55634;DHT22;41504;53.162;6.788;2023-03-01T00:49:34;1.80;88.30
55634;DHT22;41504;53.162;6.788;2023-03-01T00:52:00;1.80;88.30
55634;DHT22;41504;53.162;6.788;2023-03-01T00:54:25;1.80;88.40
55634;DHT22;41504;53.162;6.788;2023-03-01T00:56:54;1.70;88.40
55634;DHT22;41504;53.162;6.788;2023-03-01T00:59:20;1.70;88.40
55634;DHT22;41504;53.162;6.788;2023-03-01T01:01:45;1.70;88.40
55634;DHT22;41504;53.162;6.788;2023-03-01T01:04:13;1.90;88.50
55634;DHT22;41504;53.162;6.788;2023-03-01T01:06:44;1.90;88.50
55634;DHT22;41504;53.162;6.788;2023-03-01T01:09:16;1.60;88.30
55634;DHT22;41504;53.162;6.788;2023-03-01T01:11:50;1.60;88.20
55634;DHT22;41504;53.162;6.788;2023-03-01T01:14:16;1.60;88.10
55634;DHT22;41504;53.162;6.788;2023-03-01T01:16:43;1.60;88.20
55634;DHT22;41504;53.162;6.788;2023-03-01T01:19:10;1.50;88.40
55634;DHT22;41504;53.162;6.788;2023-03-01T01:21:36;1.50;88.30
55634;DHT22;41504;53.162;6.788;2023-03-01T01:24:04;1.50;88.30
55634;DHT22;41504;53.162;6.788;2023-03-01T01:26:32;1.50;88.20
55634;DHT22;41504;53.162;6.788;2023-03-01T01:28:59;1.50;88.20
55634;DHT22;41504;53.162;6.788;2023-03-01T01:31:26;1.50;88.20
55634;DHT22;41504;53.162;6.788;2023-03-01T01:33:53;1.40;88.90
55634;DHT22;41504;53.162;6.788;2023-03-01T01:36:19;1.40;88.20
55634;DHT22;41504;53.162;6.788;2023-03-01T01:38:44;1.40;88.20
55634;DHT22;41504;53.162;6.788;2023-03-01T01:41:11;1.50;88.40
55634;DHT22;41504;53.162;6.788;2023-03-01T01:43:47;1.40;88.70
55634;DHT22;41504;53.162;6.788;2023-03-01T01:46:29;1.30;88.90
55634;DHT22;41504;53.162;6.788;2023-03-01T01:49:05;1.30;88.90
55634;DHT22;41504;53.162;6.788;2023-03-01T01:51:37;1.30;88.80
55634;DHT22;41504;53.162;6.788;2023-03-01T01:54:14;1.30;88.70
55634;DHT22;41504;53.162;6.788;2023-03-01T01:56:45;1.30;89.10
55634;DHT22;41504;53.162;6.788;2023-03-01T01:59:16;1.20;88.90
55634;DHT22;41504;53.162;6.788;2023-03-01T02:01:43;1.30;88.80
55634;DHT22;41504;53.162;6.788;2023-03-01T02:04:09;1.30;88.70
55634;DHT22;41504;53.162;6.788;2023-03-01T02:06:39;1.20;88.60
55634;DHT22;41504;53.162;6.788;2023-03-01T02:09:09;1.30;88.60
55634;DHT22;41504;53.162;6.788;2023-03-01T02:11:37;1.20;88.60
55634;DHT22;41504;53.162;6.788;2023-03-01T02:14:03;1.10;88.70
55634;DHT22;41504;53.162;6.788;2023-03-01T02:16:30;1.10;89.00
55634;DHT22;41504;53.162;6.788;2023-03-01T02:18:57;1.10;89.30
55634;DHT22;41504;53.162;6.788;2023-03-01T02:24:05;1.10;89.20
55634;DHT22;41504;53.162;6.788;2023-03-01T02:26:41;1.10;89.20
55634;DHT22;41504;53.162;6.788;2023-03-01T02:29:08;1.00;89.00
55634;DHT22;41504;53.162;6.788;2023-03-01T02:31:34;1.00;88.90
55634;DHT22;41504;53.162;6.788;2023-03-01T02:34:11;1.00;89.20
55634;DHT22;41504;53.162;6.788;2023-03-01T02:36:40;0.90;89.10
55634;DHT22;41504;53.162;6.788;2023-03-01T02:39:13;0.80;89.50
55634;DHT22;41504;53.162;6.788;2023-03-01T02:41:46;0.70;89.90
55634;DHT22;41504;53.162;6.788;2023-03-01T02:44:13;0.80;90.00
55634;DHT22;41504;53.162;6.788;2023-03-01T02:47:01;0.90;89.90
55634;DHT22;41504;53.162;6.788;2023-03-01T02:49:33;0.80;89.50
55634;DHT22;41504;53.162;6.788;2023-03-01T02:52:43;0.80;89.50
55634;DHT22;41504;53.162;6.788;2023-03-01T02:55:13;0.80;89.30
55634;DHT22;41504;53.162;6.788;2023-03-01T02:57:43;0.80;89.30
55634;DHT22;41504;53.162;6.788;2023-03-01T03:00:12;0.80;89.20
55634;DHT22;41504;53.162;6.788;2023-03-01T03:02:49;0.80;89.20
55634;DHT22;41504;53.162;6.788;2023-03-01T03:05:18;0.80;89.00
55634;DHT22;41504;53.162;6.788;2023-03-01T03:07:46;0.80;89.60
55634;DHT22;41504;53.162;6.788;2023-03-01T03:10:15;0.80;89.00
55634;DHT22;41504;53.162;6.788;2023-03-01T03:12:41;0.80;89.00
55634;DHT22;41504;53.162;6.788;2023-03-01T03:15:09;0.80;88.90
55634;DHT22;41504;53.162;6.788;2023-03-01T03:17:40;0.70;88.90
55634;DHT22;41504;53.162;6.788;2023-03-01T03:20:08;0.70;89.00
55634;DHT22;41504;53.162;6.788;2023-03-01T03:22:38;0.70;88.90
55634;DHT22;41504;53.162;6.788;2023-03-01T03:25:06;0.70;88.70
55634;DHT22;41504;53.162;6.788;2023-03-01T03:27:36;0.70;88.80
55634;DHT22;41504;53.162;6.788;2023-03-01T03:30:04;0.70;88.80
55634;DHT22;41504;53.162;6.788;2023-03-01T03:32:36;0.70;88.80
55634;DHT22;41504;53.162;6.788;2023-03-01T03:35:03;0.80;88.80
55634;DHT22;41504;53.162;6.788;2023-03-01T03:37:39;0.70;88.80
55634;DHT22;41504;53.162;6.788;2023-03-01T03:40:23;0.70;88.70
55634;DHT22;41504;53.162;6.788;2023-03-01T03:42:49;0.70;88.70
55634;DHT22;41504;53.162;6.788;2023-03-01T03:45:16;0.60;88.70
55634;DHT22;41504;53.162;6.788;2023-03-01T03:47:42;0.60;88.60
55634;DHT22;41504;53.162;6.788;2023-03-01T03:50:13;0.60;88.70
55634;DHT22;41504;53.162;6.788;2023-03-01T03:52:39;0.90;88.80
55634;DHT22;41504;53.162;6.788;2023-03-01T03:55:06;0.60;88.50
55634;DHT22;41504;53.162;6.788;2023-03-01T03:57:36;0.50;88.60
55634;DHT22;41504;53.162;6.788;2023-03-01T04:00:07;0.50;88.40
55634;DHT22;41504;53.162;6.788;2023-03-01T04:02:42;0.50;88.30
55634;DHT22;41504;53.162;6.788;2023-03-01T04:05:09;0.50;88.30
55634;DHT22;41504;53.162;6.788;2023-03-01T04:07:36;0.50;88.20
55634;DHT22;41504;53.162;6.788;2023-03-01T04:10:07;0.50;88.20
55634;DHT22;41504;53.162;6.788;2023-03-01T04:12:34;0.50;88.20
55634;DHT22;41504;53.162;6.788;2023-03-01T04:15:05;0.40;88.20
55634;DHT22;41504;53.162;6.788;2023-03-01T04:17:45;0.40;88.20
55634;DHT22;41504;53.162;6.788;2023-03-01T04:20:20;0.40;88.20
55634;DHT22;41504;53.162;6.788;2023-03-01T04:25:24;0.40;88.00
55634;DHT22;41504;53.162;6.788;2023-03-01T04:27:49;0.30;88.10
55634;DHT22;41504;53.162;6.788;2023-03-01T04:30:15;0.20;88.30
55634;DHT22;41504;53.162;6.788;2023-03-01T04:32:41;0.20;88.50
55634;DHT22;41504;53.162;6.788;2023-03-01T04:35:08;0.20;88.60
55634;DHT22;41504;53.162;6.788;2023-03-01T04:37:34;0.20;88.60
55634;DHT22;41504;53.162;6.788;2023-03-01T04:40:01;0.20;88.60
55634;DHT22;41504;53.162;6.788;2023-03-01T04:42:42;0.20;88.60
55634;DHT22;41504;53.162;6.788;2023-03-01T04:45:08;0.10;88.60
55634;DHT22;41504;53.162;6.788;2023-03-01T04:47:42;0.10;88.80
55634;DHT22;41504;53.162;6.788;2023-03-01T04:50:11;0.10;88.70
55634;DHT22;41504;53.162;6.788;2023-03-01T04:52:37;0.10;88.60
55634;DHT22;41504;53.162;6.788;2023-03-01T04:55:06;0.10;88.60
55634;DHT22;41504;53.162;6.788;2023-03-01T04:57:32;0.10;88.60
55634;DHT22;41504;53.162;6.788;2023-03-01T05:00:07;0.10;88.60
55634;DHT22;41504;53.162;6.788;2023-03-01T05:03:05;0.00;88.40
55634;DHT22;41504;53.162;6.788;2023-03-01T05:05:33;0.20;88.10
55634;DHT22;41504;53.162;6.788;2023-03-01T05:08:07;-0.10;88.40
55634;DHT22;41504;53.162;6.788;2023-03-01T05:10:35;-0.20;88.80
55634;DHT22;41504;53.162;6.788;2023-03-01T05:13:02;-0.20;89.00
55634;DHT22;41504;53.162;6.788;2023-03-01T05:15:29;-0.20;88.90
55634;DHT22;41504;53.162;6.788;2023-03-01T05:17:57;-0.20;88.90
55634;DHT22;41504;53.162;6.788;2023-03-01T05:20:30;-0.20;88.80
55634;DHT22;41504;53.162;6.788;2023-03-01T05:22:59;-0.20;88.80
55634;DHT22;41504;53.162;6.788;2023-03-01T05:25:26;-0.70;88.60
55634;DHT22;41504;53.162;6.788;2023-03-01T05:27:51;-0.40;89.20
55634;DHT22;41504;53.162;6.788;2023-03-01T05:30:18;-0.50;89.40
55634;DHT22;41504;53.162;6.788;2023-03-01T05:32:49;-0.50;89.60
55634;DHT22;41504;53.162;6.788;2023-03-01T05:35:17;-0.50;89.90
55634;DHT22;41504;53.162;6.788;2023-03-01T05:37:45;-0.60;90.00
55634;DHT22;41504;53.162;6.788;2023-03-01T05:40:13;-0.60;90.00
55634;DHT22;41504;53.162;6.788;2023-03-01T05:42:51;-0.70;90.10
55634;DHT22;41504;53.162;6.788;2023-03-01T05:45:18;-0.80;90.20
55634;DHT22;41504;53.162;6.788;2023-03-01T05:47:45;-0.90;90.30
55634;DHT22;41504;53.162;6.788;2023-03-01T05:50:20;-0.90;90.20
55634;DHT22;41504;53.162;6.788;2023-03-01T05:53:02;-1.10;90.50
55634;DHT22;41504;53.162;6.788;2023-03-01T05:55:29;-1.20;90.60
55634;DHT22;41504;53.162;6.788;2023-03-01T05:57:59;-0.90;90.70
55634;DHT22;41504;53.162;6.788;2023-03-01T06:00:25;-1.20;90.60
55634;DHT22;41504;53.162;6.788;2023-03-01T06:02:56;-1.10;90.50
55634;DHT22;41504;53.162;6.788;2023-03-01T06:05:25;-1.10;90.50
55634;DHT22;41504;53.162;6.788;2023-03-01T06:07:51;-1.00;90.40
55634;DHT22;41504;53.162;6.788;2023-03-01T06:10:19;-1.00;90.40
55634;DHT22;41504;53.162;6.788;2023-03-01T06:12:46;-1.00;90.30
55634;DHT22;41504;53.162;6.788;2023-03-01T06:15:16;-0.90;90.30
55634;DHT22;41504;53.162;6.788;2023-03-01T06:17:43;-0.90;90.40
55634;DHT22;41504;53.162;6.788;2023-03-01T06:20:28;-0.90;90.40
55634;DHT22;41504;53.162;6.788;2023-03-01T06:22:54;-0.80;90.20
55634;DHT22;41504;53.162;6.788;2023-03-01T06:25:22;-0.80;90.10
55634;DHT22;41504;53.162;6.788;2023-03-01T06:27:48;-0.80;90.10
55634;DHT22;41504;53.162;6.788;2023-03-01T06:30:16;-0.90;90.20
55634;DHT22;41504;53.162;6.788;2023-03-01T06:32:42;-0.80;90.20
55634;DHT22;41504;53.162;6.788;2023-03-01T06:35:10;-0.90;90.20
55634;DHT22;41504;53.162;6.788;2023-03-01T06:37:36;-0.90;90.20
55634;DHT22;41504;53.162;6.788;2023-03-01T06:40:05;-0.70;90.30
55634;DHT22;41504;53.162;6.788;2023-03-01T06:42:37;-0.80;90.10
55634;DHT22;41504;53.162;6.788;2023-03-01T06:45:05;-0.80;90.00
55634;DHT22;41504;53.162;6.788;2023-03-01T06:47:32;-0.80;90.10
55634;DHT22;41504;53.162;6.788;2023-03-01T06:49:59;-0.90;90.10
55634;DHT22;41504;53.162;6.788;2023-03-01T06:52:31;-0.90;90.20
55634;DHT22;41504;53.162;6.788;2023-03-01T06:54:57;-0.80;90.30
55634;DHT22;41504;53.162;6.788;2023-03-01T06:57:23;-0.70;90.10
55634;DHT22;41504;53.162;6.788;2023-03-01T06:59:48;-0.80;90.10
55634;DHT22;41504;53.162;6.788;2023-03-01T07:02:15;-0.70;90.20
55634;DHT22;41504;53.162;6.788;2023-03-01T07:04:41;-0.60;90.10
55634;DHT22;41504;53.162;6.788;2023-03-01T07:07:07;-0.60;90.00
55634;DHT22;41504;53.162;6.788;2023-03-01T07:09:33;-0.60;90.00
55634;DHT22;41504;53.162;6.788;2023-03-01T07:11:58;-0.50;90.00
55634;DHT22;41504;53.162;6.788;2023-03-01T07:14:24;-0.50;90.00
55634;DHT22;41504;53.162;6.788;2023-03-01T07:16:53;-0.40;90.00
55634;DHT22;41504;53.162;6.788;2023-03-01T07:19:20;-0.40;90.00
55634;DHT22;41504;53.162;6.788;2023-03-01T07:21:45;-0.40;90.00
55634;DHT22;41504;53.162;6.788;2023-03-01T07:24:11;-0.40;90.00
55634;DHT22;41504;53.162;6.788;2023-03-01T07:26:37;-0.40;90.10
55634;DHT22;41504;53.162;6.788;2023-03-01T07:29:05;-0.40;90.10
55634;DHT22;41504;53.162;6.788;2023-03-01T07:31:31;-0.30;90.10
55634;DHT22;41504;53.162;6.788;2023-03-01T07:33:57;-0.30;90.10
55634;DHT22;41504;53.162;6.788;2023-03-01T07:36:25;-0.30;90.20
55634;DHT22;41504;53.162;6.788;2023-03-01T07:38:53;-0.20;90.30
55634;DHT22;41504;53.162;6.788;2023-03-01T07:41:24;-0.10;90.20
55634;DHT22;41504;53.162;6.788;2023-03-01T07:43:49;0.00;90.10
55634;DHT22;41504;53.162;6.788;2023-03-01T07:46:15;0.10;90.10
55634;DHT22;41504;53.162;6.788;2023-03-01T07:48:41;0.10;90.00
55634;DHT22;41504;53.162;6.788;2023-03-01T07:51:07;0.20;90.00
55634;DHT22;41504;53.162;6.788;2023-03-01T07:53:34;0.30;89.90
55634;DHT22;41504;53.162;6.788;2023-03-01T07:56:04;0.40;89.60
55634;DHT22;41504;53.162;6.788;2023-03-01T07:58:31;0.50;89.60
55634;DHT22;41504;53.162;6.788;2023-03-01T08:01:04;0.50;89.80
55634;DHT22;41504;53.162;6.788;2023-03-01T08:03:30;0.50;89.80
55634;DHT22;41504;53.162;6.788;2023-03-01T08:05:58;0.60;90.00
55634;DHT22;41504;53.162;6.788;2023-03-01T08:08:24;0.60;90.00
55634;DHT22;41504;53.162;6.788;2023-03-01T08:10:50;0.70;90.00
55634;DHT22;41504;53.162;6.788;2023-03-01T08:13:15;0.70;90.00
55634;DHT22;41504;53.162;6.788;2023-03-01T08:15:41;0.80;90.00
55634;DHT22;41504;53.162;6.788;2023-03-01T08:18:07;0.90;90.00
55634;DHT22;41504;53.162;6.788;2023-03-01T08:20:32;1.00;90.00
55634;DHT22;41504;53.162;6.788;2023-03-01T08:22:58;1.10;90.00
55634;DHT22;41504;53.162;6.788;2023-03-01T08:25:24;1.10;89.90
55634;DHT22;41504;53.162;6.788;2023-03-01T08:27:49;1.20;89.90
55634;DHT22;41504;53.162;6.788;2023-03-01T08:30:15;1.30;89.90
55634;DHT22;41504;53.162;6.788;2023-03-01T08:32:44;1.30;89.90
55634;DHT22;41504;53.162;6.788;2023-03-01T08:35:09;1.40;89.90
55634;DHT22;41504;53.162;6.788;2023-03-01T08:37:35;1.50;89.90
55634;DHT22;41504;53.162;6.788;2023-03-01T08:40:01;1.50;89.90
55634;DHT22;41504;53.162;6.788;2023-03-01T08:42:30;1.60;90.00
55634;DHT22;41504;53.162;6.788;2023-03-01T08:44:57;1.70;90.00
55634;DHT22;41504;53.162;6.788;2023-03-01T08:47:23;1.80;90.00
55634;DHT22;41504;53.162;6.788;2023-03-01T08:49:50;1.80;90.00
55634;DHT22;41504;53.162;6.788;2023-03-01T08:52:16;1.90;90.00
55634;DHT22;41504;53.162;6.788;2023-03-01T08:54:42;2.00;90.00
55634;DHT22;41504;53.162;6.788;2023-03-01T08:57:07;2.20;90.00
55634;DHT22;41504;53.162;6.788;2023-03-01T08:59:35;2.10;89.90
55634;DHT22;41504;53.162;6.788;2023-03-01T09:02:08;2.10;90.00
55634;DHT22;41504;53.162;6.788;2023-03-01T09:04:36;2.20;89.90
55634;DHT22;41504;53.162;6.788;2023-03-01T09:07:01;2.30;89.80
55634;DHT22;41504;53.162;6.788;2023-03-01T09:09:27;2.30;89.80
55634;DHT22;41504;53.162;6.788;2023-03-01T09:11:53;2.40;89.90
55634;DHT22;41504;53.162;6.788;2023-03-01T09:14:18;2.40;89.80
55634;DHT22;41504;53.162;6.788;2023-03-01T09:16:44;2.50;89.90
55634;DHT22;41504;53.162;6.788;2023-03-01T09:19:10;2.50;89.80
55634;DHT22;41504;53.162;6.788;2023-03-01T09:21:37;2.70;89.90
55634;DHT22;41504;53.162;6.788;2023-03-01T09:24:03;2.70;89.90
55634;DHT22;41504;53.162;6.788;2023-03-01T09:26:29;2.80;89.80
55634;DHT22;41504;53.162;6.788;2023-03-01T09:28:56;2.90;89.80
55634;DHT22;41504;53.162;6.788;2023-03-01T09:31:23;2.90;89.80
55634;DHT22;41504;53.162;6.788;2023-03-01T09:33:51;3.00;89.80
55634;DHT22;41504;53.162;6.788;2023-03-01T09:36:22;3.00;89.80
55634;DHT22;41504;53.162;6.788;2023-03-01T09:38:49;3.10;89.90
55634;DHT22;41504;53.162;6.788;2023-03-01T09:43:42;3.30;89.70
55634;DHT22;41504;53.162;6.788;2023-03-01T09:46:12;3.40;89.70
55634;DHT22;41504;53.162;6.788;2023-03-01T09:49:02;3.50;89.70
55634;DHT22;41504;53.162;6.788;2023-03-01T09:51:32;3.50;89.60
55634;DHT22;41504;53.162;6.788;2023-03-01T09:53:58;3.60;89.50
55634;DHT22;41504;53.162;6.788;2023-03-01T09:59:03;3.70;88.90
55634;DHT22;41504;53.162;6.788;2023-03-01T10:01:58;3.70;88.70
55634;DHT22;41504;53.162;6.788;2023-03-01T10:07:48;3.90;88.50
55634;DHT22;41504;53.162;6.788;2023-03-01T10:10:28;3.90;88.20
55634;DHT22;41504;53.162;6.788;2023-03-01T10:12:55;4.00;88.10
55634;DHT22;41504;53.162;6.788;2023-03-01T10:15:44;4.10;88.00
55634;DHT22;41504;53.162;6.788;2023-03-01T10:18:36;4.10;87.80
55634;DHT22;41504;53.162;6.788;2023-03-01T10:23:38;4.30;87.70
55634;DHT22;41504;53.162;6.788;2023-03-01T10:28:59;4.40;87.10
55634;DHT22;41504;53.162;6.788;2023-03-01T10:31:38;4.50;86.70
55634;DHT22;41504;53.162;6.788;2023-03-01T10:34:31;4.50;86.30
55634;DHT22;41504;53.162;6.788;2023-03-01T10:40:30;4.70;85.90
55634;DHT22;41504;53.162;6.788;2023-03-01T10:43:04;4.70;85.30
55634;DHT22;41504;53.162;6.788;2023-03-01T10:45:31;4.80;85.30
55634;DHT22;41504;53.162;6.788;2023-03-01T10:48:21;4.80;84.90
55634;DHT22;41504;53.162;6.788;2023-03-01T10:56:16;5.00;84.10
55634;DHT22;41504;53.162;6.788;2023-03-01T10:59:02;5.10;84.10
55634;DHT22;41504;53.162;6.788;2023-03-01T11:01:37;5.10;84.00
55634;DHT22;41504;53.162;6.788;2023-03-01T11:06:33;5.30;83.80
55634;DHT22;41504;53.162;6.788;2023-03-01T11:09:19;5.30;83.60
55634;DHT22;41504;53.162;6.788;2023-03-01T11:11:45;5.40;83.50
55634;DHT22;41504;53.162;6.788;2023-03-01T11:14:25;5.40;83.50
55634;DHT22;41504;53.162;6.788;2023-03-01T11:17:03;5.60;83.10
55634;DHT22;41504;53.162;6.788;2023-03-01T11:19:30;5.60;83.00
55634;DHT22;41504;53.162;6.788;2023-03-01T11:27:36;5.80;82.60
55634;DHT22;41504;53.162;6.788;2023-03-01T11:30:13;5.90;82.60
55634;DHT22;41504;53.162;6.788;2023-03-01T11:35:38;6.00;82.20
55634;DHT22;41504;53.162;6.788;2023-03-01T11:58:24;6.50;80.50
55634;DHT22;41504;53.162;6.788;2023-03-01T12:04:10;6.80;79.60
55634;DHT22;41504;53.162;6.788;2023-03-01T12:07:18;6.80;79.50
55634;DHT22;41504;53.162;6.788;2023-03-01T12:15:49;7.00;78.50
55634;DHT22;41504;53.162;6.788;2023-03-01T12:21:13;7.10;77.80
55634;DHT22;41504;53.162;6.788;2023-03-01T12:26:25;7.20;77.20
55634;DHT22;41504;53.162;6.788;2023-03-01T12:50:20;7.70;75.10
55634;DHT22;41504;53.162;6.788;2023-03-01T12:52:51;7.70;74.90
55634;DHT22;41504;53.162;6.788;2023-03-01T12:55:38;7.80;75.00
55634;DHT22;41504;53.162;6.788;2023-03-01T13:10:11;8.10;73.70
55634;DHT22;41504;53.162;6.788;2023-03-01T13:15:31;8.20;73.50
55634;DHT22;41504;53.162;6.788;2023-03-01T13:18:00;8.20;73.90
55634;DHT22;41504;53.162;6.788;2023-03-01T13:20:31;8.20;73.70
55634;DHT22;41504;53.162;6.788;2023-03-01T13:23:11;8.30;73.90
55634;DHT22;41504;53.162;6.788;2023-03-01T13:26:04;8.30;73.80
55634;DHT22;41504;53.162;6.788;2023-03-01T13:28:35;8.40;73.30
55634;DHT22;41504;53.162;6.788;2023-03-01T13:31:03;8.50;73.60
55634;DHT22;41504;53.162;6.788;2023-03-01T13:35:59;8.60;72.70
55634;DHT22;41504;53.162;6.788;2023-03-01T13:38:48;8.60;73.00
55634;DHT22;41504;53.162;6.788;2023-03-01T13:41:52;8.70;72.90
55634;DHT22;41504;53.162;6.788;2023-03-01T13:44:30;8.80;72.20
55634;DHT22;41504;53.162;6.788;2023-03-01T13:52:43;8.80;72.20
55634;DHT22;41504;53.162;6.788;2023-03-01T13:58:14;9.00;72.40
55634;DHT22;41504;53.162;6.788;2023-03-01T14:00:41;9.10;72.60
55634;DHT22;41504;53.162;6.788;2023-03-01T14:03:20;9.10;72.40
55634;DHT22;41504;53.162;6.788;2023-03-01T14:06:14;9.10;71.90
55634;DHT22;41504;53.162;6.788;2023-03-01T14:08:41;9.20;72.00
55634;DHT22;41504;53.162;6.788;2023-03-01T14:16:33;9.40;71.50
55634;DHT22;41504;53.162;6.788;2023-03-01T14:19:18;9.50;71.70
55634;DHT22;41504;53.162;6.788;2023-03-01T14:21:46;9.50;71.00
55634;DHT22;41504;53.162;6.788;2023-03-01T14:24:24;9.50;71.40
55634;DHT22;41504;53.162;6.788;2023-03-01T14:26:52;9.50;70.60
55634;DHT22;41504;53.162;6.788;2023-03-01T14:29:35;9.60;71.10
55634;DHT22;41504;53.162;6.788;2023-03-01T14:32:24;9.70;70.60
55634;DHT22;41504;53.162;6.788;2023-03-01T14:34:50;9.70;70.10
55634;DHT22;41504;53.162;6.788;2023-03-01T14:37:26;9.80;70.10
55634;DHT22;41504;53.162;6.788;2023-03-01T14:39:53;9.80;70.40
55634;DHT22;41504;53.162;6.788;2023-03-01T14:42:21;9.70;70.30
55634;DHT22;41504;53.162;6.788;2023-03-01T14:44:50;9.80;69.90
55634;DHT22;41504;53.162;6.788;2023-03-01T14:47:30;9.80;69.10
55634;DHT22;41504;53.162;6.788;2023-03-01T14:50:01;9.90;69.20
55634;DHT22;41504;53.162;6.788;2023-03-01T14:52:35;9.90;69.70
55634;DHT22;41504;53.162;6.788;2023-03-01T14:55:05;9.90;69.20
55634;DHT22;41504;53.162;6.788;2023-03-01T14:57:34;9.90;69.80
55634;DHT22;41504;53.162;6.788;2023-03-01T15:00:02;9.90;69.10
55634;DHT22;41504;53.162;6.788;2023-03-01T15:02:32;9.90;69.00
55634;DHT22;41504;53.162;6.788;2023-03-01T15:05:01;9.90;69.20
55634;DHT22;41504;53.162;6.788;2023-03-01T15:07:37;9.90;69.30
55634;DHT22;41504;53.162;6.788;2023-03-01T15:10:06;9.80;69.30
55634;DHT22;41504;53.162;6.788;2023-03-01T15:12:39;9.80;69.50
55634;DHT22;41504;53.162;6.788;2023-03-01T15:17:56;9.70;69.60
55634;DHT22;41504;53.162;6.788;2023-03-01T15:20:25;9.50;70.10
55634;DHT22;41504;53.162;6.788;2023-03-01T15:22:53;9.40;70.50
55634;DHT22;41504;53.162;6.788;2023-03-01T15:25:26;9.30;70.80
55634;DHT22;41504;53.162;6.788;2023-03-01T15:27:54;9.20;70.90
55634;DHT22;41504;53.162;6.788;2023-03-01T15:30:27;9.10;71.00
55634;DHT22;41504;53.162;6.788;2023-03-01T15:33:16;9.00;70.90
55634;DHT22;41504;53.162;6.788;2023-03-01T15:35:46;8.90;71.00
55634;DHT22;41504;53.162;6.788;2023-03-01T15:41:03;8.70;71.60
55634;DHT22;41504;53.162;6.788;2023-03-01T15:43:48;8.70;72.10
55634;DHT22;41504;53.162;6.788;2023-03-01T15:46:21;8.60;71.70
55634;DHT22;41504;53.162;6.788;2023-03-01T15:48:49;8.50;72.00
55634;DHT22;41504;53.162;6.788;2023-03-01T15:51:35;8.40;71.10
55634;DHT22;41504;53.162;6.788;2023-03-01T15:54:13;8.30;72.30
55634;DHT22;41504;53.162;6.788;2023-03-01T15:56:41;8.30;70.90
55634;DHT22;41504;53.162;6.788;2023-03-01T15:59:10;8.30;72.70
55634;DHT22;41504;53.162;6.788;2023-03-01T16:01:37;8.20;72.70
55634;DHT22;41504;53.162;6.788;2023-03-01T16:04:02;8.20;72.60
55634;DHT22;41504;53.162;6.788;2023-03-01T16:06:28;8.10;72.90
55634;DHT22;41504;53.162;6.788;2023-03-01T16:08:54;8.10;72.90
55634;DHT22;41504;53.162;6.788;2023-03-01T16:11:20;8.10;72.90
55634;DHT22;41504;53.162;6.788;2023-03-01T16:13:49;8.10;73.10
55634;DHT22;41504;53.162;6.788;2023-03-01T16:16:16;8.00;73.10
55634;DHT22;41504;53.162;6.788;2023-03-01T16:18:43;8.00;73.00
55634;DHT22;41504;53.162;6.788;2023-03-01T16:21:19;8.00;73.20
55634;DHT22;41504;53.162;6.788;2023-03-01T16:23:49;8.00;73.30
55634;DHT22;41504;53.162;6.788;2023-03-01T16:26:18;7.90;73.40
55634;DHT22;41504;53.162;6.788;2023-03-01T16:28:45;7.90;73.20
55634;DHT22;41504;53.162;6.788;2023-03-01T16:31:11;7.80;73.60
55634;DHT22;41504;53.162;6.788;2023-03-01T16:33:38;7.80;73.70
55634;DHT22;41504;53.162;6.788;2023-03-01T16:36:11;7.80;73.90
55634;DHT22;41504;53.162;6.788;2023-03-01T16:38:38;7.80;74.00
55634;DHT22;41504;53.162;6.788;2023-03-01T16:41:04;7.70;74.00
55634;DHT22;41504;53.162;6.788;2023-03-01T16:43:31;7.70;74.10
55634;DHT22;41504;53.162;6.788;2023-03-01T16:45:57;7.70;74.20
55634;DHT22;41504;53.162;6.788;2023-03-01T16:48:24;7.60;74.30
55634;DHT22;41504;53.162;6.788;2023-03-01T16:50:58;7.60;74.50
55634;DHT22;41504;53.162;6.788;2023-03-01T16:53:28;7.50;74.60
55634;DHT22;41504;53.162;6.788;2023-03-01T16:55:55;7.50;75.40
55634;DHT22;41504;53.162;6.788;2023-03-01T16:58:24;7.50;75.10
55634;DHT22;41504;53.162;6.788;2023-03-01T17:00:54;7.40;75.20
55634;DHT22;41504;53.162;6.788;2023-03-01T17:03:24;7.40;75.50
55634;DHT22;41504;53.162;6.788;2023-03-01T17:05:54;7.30;75.50
55634;DHT22;41504;53.162;6.788;2023-03-01T17:08:20;7.30;75.70
55634;DHT22;41504;53.162;6.788;2023-03-01T17:10:46;7.30;75.90
55634;DHT22;41504;53.162;6.788;2023-03-01T17:13:12;7.20;76.10
55634;DHT22;41504;53.162;6.788;2023-03-01T17:15:39;7.20;76.40
55634;DHT22;41504;53.162;6.788;2023-03-01T17:18:05;7.10;76.60
55634;DHT22;41504;53.162;6.788;2023-03-01T17:20:31;7.10;77.00
55634;DHT22;41504;53.162;6.788;2023-03-01T17:22:57;7.00;77.20
55634;DHT22;41504;53.162;6.788;2023-03-01T17:25:23;7.00;77.50
55634;DHT22;41504;53.162;6.788;2023-03-01T17:27:54;6.90;77.70
55634;DHT22;41504;53.162;6.788;2023-03-01T17:30:22;6.90;78.00
55634;DHT22;41504;53.162;6.788;2023-03-01T17:32:57;6.80;78.30
55634;DHT22;41504;53.162;6.788;2023-03-01T17:35:22;7.00;78.70
55634;DHT22;41504;53.162;6.788;2023-03-01T17:37:54;6.80;79.00
55634;DHT22;41504;53.162;6.788;2023-03-01T17:40:20;6.60;79.20
55634;DHT22;41504;53.162;6.788;2023-03-01T17:42:45;6.60;79.50
55634;DHT22;41504;53.162;6.788;2023-03-01T17:45:11;6.60;79.80
55634;DHT22;41504;53.162;6.788;2023-03-01T17:47:37;6.50;79.80
55634;DHT22;41504;53.162;6.788;2023-03-01T17:50:03;6.40;80.10
55634;DHT22;41504;53.162;6.788;2023-03-01T17:52:30;6.40;80.20
55634;DHT22;41504;53.162;6.788;2023-03-01T17:54:56;6.30;80.40
55634;DHT22;41504;53.162;6.788;2023-03-01T17:57:22;6.40;80.90
55634;DHT22;41504;53.162;6.788;2023-03-01T17:59:48;6.30;81.00
55634;DHT22;41504;53.162;6.788;2023-03-01T18:02:13;6.20;81.30
55634;DHT22;41504;53.162;6.788;2023-03-01T18:04:39;6.10;81.20
55634;DHT22;41504;53.162;6.788;2023-03-01T18:07:05;6.10;81.30
55634;DHT22;41504;53.162;6.788;2023-03-01T18:09:30;6.00;81.70
55634;DHT22;41504;53.162;6.788;2023-03-01T18:11:56;6.00;81.80